Butler, Kentucky
Current Conditions -  °F | °C
As of 1:53 AM on Sunday 26 Oct 2014 (Local Time) from KLUK Reporting Station
Clear Clear  
Wind Chill: 62°   Ceiling: Unl
Heat Index: 62°   Visibility: 10mi
Dew Point: 41°   Wind: 3mph
Humidity: 46%   Direction: 320°NW
Pressure: 29.95"   Gusts: NA
Location:  38.79°N, 84.37°W
Report Text: KLUK 260553Z AUTO 32003KT 10SM CLR 17/05 A2995 RMK AO2 SLP138 T01670050 10194 20161 51010
Loading
Personal Weather Stations






























Interactive Weather Map
Tropical Storm Tracking
New forecast layout! Learn more

10-Day Weather Forecast

Advertisements
Track Severe Weather on mobile